createdAt,value
2023-02-07T00:00:31.696Z,39.39
2023-02-07T00:12:05.069Z,39.52
2023-02-07T00:14:45.176Z,39.34
2023-02-07T00:22:59.487Z,39.11
2023-02-07T00:25:40.255Z,39.32
2023-02-07T00:28:08.021Z,39.28
2023-02-07T00:30:35.796Z,39.37
2023-02-07T00:33:05.193Z,39.07
2023-02-07T00:35:33.298Z,39.46
2023-02-07T00:38:02.228Z,39.41
2023-02-07T00:40:29.874Z,39.51
2023-02-07T00:42:58.398Z,39.62
2023-02-07T00:45:25.440Z,39.97
2023-02-07T00:47:53.507Z,39.87
2023-02-07T00:50:22.492Z,40.13
2023-02-07T00:52:51.026Z,40.17
2023-02-07T00:55:18.273Z,40.26
2023-02-07T00:57:49.447Z,40.00
2023-02-07T01:00:16.885Z,39.72
2023-02-07T01:02:47.535Z,40.19
2023-02-07T01:05:14.427Z,40.18
2023-02-07T01:07:44.976Z,40.27
2023-02-07T01:10:12.021Z,40.20
2023-02-07T01:12:42.546Z,40.12
2023-02-07T01:15:11.681Z,40.25
2023-02-07T01:17:41.651Z,40.50
2023-02-07T01:20:12.817Z,40.61
2023-02-07T01:22:43.258Z,40.56
2023-02-07T01:25:12.432Z,40.49
2023-02-07T01:27:41.005Z,40.41
2023-02-07T01:30:11.030Z,40.87
2023-02-07T01:32:39.292Z,41.41
2023-02-07T01:35:08.272Z,40.82
2023-02-07T01:37:37.330Z,40.95
2023-02-07T01:40:08.161Z,40.55
2023-02-07T01:42:36.616Z,40.57
2023-02-07T01:45:28.925Z,40.27
2023-02-07T01:48:04.916Z,40.23
2023-02-07T01:53:19.726Z,40.62
2023-02-07T01:55:47.876Z,40.51
2023-02-07T02:01:04.142Z,40.70
2023-02-07T02:03:36.288Z,40.35
2023-02-07T02:12:46.024Z,40.34
2023-02-07T02:15:24.538Z,40.67
2023-02-07T02:18:27.710Z,40.44
2023-02-07T02:21:06.478Z,40.05
2023-02-07T02:23:57.435Z,40.02
2023-02-07T02:27:08.076Z,40.11
2023-02-07T02:29:55.547Z,40.09
2023-02-07T02:32:51.409Z,40.28
2023-02-07T02:35:37.650Z,40.37
2023-02-07T02:38:48.790Z,40.16
2023-02-07T02:41:41.516Z,40.54
2023-02-07T02:50:03.764Z,40.56
2023-02-07T02:52:50.309Z,40.46
2023-02-07T02:55:58.102Z,40.41
2023-02-07T02:59:02.086Z,40.28
2023-02-07T03:01:51.135Z,40.45
2023-02-07T03:04:42.488Z,40.81
2023-02-07T03:07:59.445Z,41.78
2023-02-07T03:10:54.894Z,42.11
2023-02-07T03:13:37.909Z,42.00
2023-02-07T03:16:49.980Z,42.08
2023-02-07T03:19:27.679Z,42.36
2023-02-07T03:22:12.439Z,42.23
2023-02-07T03:24:45.603Z,41.61
2023-02-07T03:27:18.708Z,41.34
2023-02-07T03:29:48.152Z,41.28
2023-02-07T03:32:23.014Z,41.12
2023-02-07T03:35:05.472Z,40.86
2023-02-07T03:37:39.609Z,40.50
2023-02-07T03:40:11.324Z,40.81
2023-02-07T03:42:53.173Z,41.30
2023-02-07T03:45:21.402Z,41.50
2023-02-07T03:47:48.692Z,41.45
2023-02-07T03:50:16.464Z,41.53
2023-02-07T03:55:28.854Z,41.48
2023-02-07T03:57:56.196Z,41.23
2023-02-07T04:00:33.886Z,41.00
2023-02-07T04:03:03.804Z,41.23
2023-02-07T04:05:32.178Z,41.50
2023-02-07T04:08:14.913Z,41.22
2023-02-07T04:10:43.098Z,40.88
2023-02-07T04:13:12.807Z,40.31
2023-02-07T04:15:40.839Z,40.26
2023-02-07T04:18:09.477Z,40.19
2023-02-07T04:20:36.787Z,40.64
2023-02-07T04:23:06.326Z,40.76
2023-02-07T04:25:38.761Z,40.59
2023-02-07T04:28:09.753Z,40.34
2023-02-07T04:30:37.333Z,40.46
2023-02-07T04:33:05.325Z,39.89
2023-02-07T04:35:35.081Z,40.22
2023-02-07T04:39:23.996Z,45.25
2023-02-07T04:41:52.340Z,41.54
2023-02-07T04:44:20.708Z,40.54
2023-02-07T04:46:48.953Z,40.66
2023-02-07T04:49:17.139Z,40.76
2023-02-07T04:51:45.219Z,40.52
2023-02-07T04:54:13.310Z,40.76
2023-02-07T04:56:42.100Z,40.79
2023-02-07T04:59:10.130Z,40.66
2023-02-07T05:01:38.404Z,40.77
2023-02-07T05:04:08.469Z,41.12
2023-02-07T05:06:36.593Z,41.28
2023-02-07T05:09:04.977Z,40.90
2023-02-07T05:11:33.986Z,40.58
2023-02-07T05:14:02.143Z,40.71
2023-02-07T05:16:30.400Z,40.72
2023-02-07T05:18:58.413Z,40.74
2023-02-07T05:21:26.799Z,40.45
2023-02-07T05:23:54.760Z,40.29
2023-02-07T05:26:23.013Z,40.26
2023-02-07T05:28:51.169Z,40.35
2023-02-07T05:31:19.532Z,40.16
2023-02-07T05:33:47.579Z,39.93
2023-02-07T05:36:15.740Z,40.24
2023-02-07T05:38:43.785Z,40.25
2023-02-07T05:41:11.960Z,40.23
2023-02-07T05:43:39.963Z,40.16
2023-02-07T05:46:08.068Z,40.30
2023-02-07T05:48:36.473Z,40.59
2023-02-07T05:51:04.892Z,40.63
2023-02-07T05:53:33.133Z,40.40
2023-02-07T05:56:01.048Z,40.36
2023-02-07T05:58:29.378Z,40.16
2023-02-07T06:00:59.497Z,40.23
2023-02-07T06:03:27.912Z,40.37
2023-02-07T06:05:56.256Z,40.67
2023-02-07T06:08:24.342Z,40.60
2023-02-07T06:10:52.263Z,41.00
2023-02-07T06:13:20.875Z,40.75
2023-02-07T06:15:49.182Z,40.86
2023-02-07T06:18:17.235Z,41.14
2023-02-07T06:20:45.299Z,40.99
2023-02-07T06:23:13.268Z,40.55
2023-02-07T06:25:42.769Z,40.93
2023-02-07T06:28:11.003Z,40.76
2023-02-07T06:30:38.958Z,40.94
2023-02-07T06:33:08.179Z,41.27
2023-02-07T06:35:37.542Z,40.90
2023-02-07T06:38:06.308Z,41.19
2023-02-07T06:40:34.623Z,41.17
2023-02-07T06:43:03.208Z,41.38
2023-02-07T06:45:31.336Z,41.52
2023-02-07T06:47:59.629Z,41.63
2023-02-07T06:50:27.767Z,41.65
2023-02-07T06:53:02.097Z,40.93
2023-02-07T06:55:31.581Z,40.81
2023-02-07T06:58:01.086Z,40.44
2023-02-07T07:00:29.817Z,39.81
2023-02-07T07:02:57.801Z,39.41
2023-02-07T07:05:27.312Z,39.73
2023-02-07T07:07:56.479Z,39.98
2023-02-07T07:10:24.835Z,39.19
2023-02-07T07:12:53.002Z,38.30
2023-02-07T07:15:21.060Z,36.47
2023-02-07T07:17:49.172Z,35.71
2023-02-07T07:20:17.323Z,35.86
2023-02-07T07:22:45.581Z,35.91
2023-02-07T07:25:13.793Z,36.26
2023-02-07T07:27:41.799Z,36.41
2023-02-07T07:30:11.076Z,36.30
2023-02-07T07:32:39.691Z,35.96
2023-02-07T07:35:07.981Z,35.58
2023-02-07T07:37:35.971Z,35.91
2023-02-07T07:40:04.804Z,35.72
2023-02-07T07:42:33.159Z,35.97
2023-02-07T07:45:22.940Z,35.58
2023-02-07T07:47:51.048Z,35.73
2023-02-07T09:13:57.713Z,46.95
2023-02-07T09:16:24.747Z,41.44
2023-02-07T09:18:51.907Z,40.02
2023-02-07T09:21:18.554Z,39.44
2023-02-07T09:23:45.183Z,38.60
2023-02-07T09:26:20.760Z,35.98
2023-02-07T09:28:47.276Z,35.68
2023-02-07T09:31:14.729Z,35.66
2023-02-07T09:33:41.889Z,35.45
2023-02-07T09:36:26.638Z,34.34
2023-02-07T09:38:53.716Z,32.81
2023-02-07T09:41:56.398Z,33.33
2023-02-07T09:44:28.120Z,32.94
2023-02-07T09:46:58.107Z,32.79
2023-02-07T09:49:33.266Z,32.63
2023-02-07T09:51:59.897Z,32.55
2023-02-07T09:54:38.974Z,32.82
2023-02-07T09:57:10.907Z,32.26
2023-02-07T09:59:43.770Z,32.16
2023-02-07T10:02:42.313Z,31.60
2023-02-07T10:05:17.230Z,32.01
2023-02-07T10:07:44.964Z,31.66
2023-02-07T10:10:18.985Z,32.11
2023-02-07T10:13:04.872Z,31.51
2023-02-07T10:15:40.824Z,30.62
2023-02-07T10:18:58.587Z,30.77
2023-02-07T10:21:31.546Z,31.13
2023-02-07T10:24:15.909Z,31.18
2023-02-07T10:26:46.494Z,31.56
2023-02-07T10:29:25.261Z,31.34
2023-02-07T10:31:53.680Z,30.03
2023-02-07T10:34:24.958Z,28.77
2023-02-07T10:36:52.338Z,28.55
2023-02-07T10:39:21.991Z,28.10
2023-02-07T10:41:48.892Z,28.18
2023-02-07T10:44:22.682Z,28.28
2023-02-07T10:46:58.229Z,28.42
2023-02-07T10:49:26.917Z,28.44
2023-02-07T10:51:58.219Z,28.41
2023-02-07T10:54:27.546Z,28.64
2023-02-07T10:57:02.183Z,29.49
2023-02-07T10:59:29.523Z,29.38
2023-02-07T11:01:57.156Z,28.77
2023-02-07T11:04:38.036Z,29.00
2023-02-07T11:07:06.960Z,29.64
2023-02-07T11:09:41.317Z,29.04
2023-02-07T11:12:15.847Z,28.39
2023-02-07T11:15:00.990Z,28.54
2023-02-07T11:17:29.443Z,26.84
2023-02-07T11:19:56.173Z,25.79
2023-02-07T11:22:23.761Z,25.45
2023-02-07T11:24:53.659Z,25.50
2023-02-07T11:27:23.124Z,25.53
2023-02-07T11:29:51.547Z,25.74
2023-02-07T11:32:18.115Z,26.05
2023-02-07T11:34:49.254Z,26.27
2023-02-07T11:37:26.330Z,26.42
2023-02-07T11:39:55.559Z,26.54
2023-02-07T11:42:29.758Z,26.21
2023-02-07T11:44:58.747Z,26.03
2023-02-07T11:47:28.542Z,26.51
2023-02-07T11:50:02.767Z,26.48
2023-02-07T11:52:31.096Z,26.35
2023-02-07T11:55:00.260Z,26.38
2023-02-07T11:57:29.492Z,26.34
2023-02-07T12:00:27.844Z,26.50
2023-02-07T12:03:03.278Z,26.07
2023-02-07T12:05:33.293Z,26.32
2023-02-07T12:08:03.456Z,26.00
2023-02-07T12:10:33.328Z,25.84
2023-02-07T12:13:23.839Z,25.74
2023-02-07T12:15:55.088Z,26.30
2023-02-07T12:18:49.667Z,26.28
2023-02-07T12:21:32.927Z,26.46
2023-02-07T12:24:05.557Z,26.17
2023-02-07T12:26:36.774Z,25.85
2023-02-07T12:29:14.014Z,25.46
2023-02-07T12:31:54.375Z,25.50
2023-02-07T12:34:32.212Z,25.18
2023-02-07T12:37:13.779Z,25.33
2023-02-07T12:39:45.628Z,25.72
2023-02-07T12:42:22.610Z,25.87
2023-02-07T12:44:57.837Z,25.90
2023-02-07T12:47:51.585Z,25.78
2023-02-07T12:50:32.988Z,25.62
2023-02-07T12:53:08.593Z,26.10
2023-02-07T12:55:51.662Z,26.42
2023-02-07T12:58:40.248Z,26.52
2023-02-07T13:01:19.874Z,26.03
2023-02-07T13:04:05.370Z,25.76
2023-02-07T13:06:48.995Z,25.17
2023-02-07T13:09:42.738Z,25.34
2023-02-07T13:13:05.570Z,26.35
2023-02-07T13:15:38.184Z,26.97
2023-02-07T13:18:36.550Z,27.48
2023-02-07T13:21:05.945Z,28.25
2023-02-07T13:23:33.560Z,28.35
2023-02-07T13:26:05.602Z,28.55
2023-02-07T13:28:52.400Z,28.66
2023-02-07T13:31:40.357Z,28.73
2023-02-07T13:34:18.356Z,28.43
2023-02-07T13:36:48.564Z,28.84
2023-02-07T13:39:28.625Z,28.73
2023-02-07T13:42:22.988Z,28.48
2023-02-07T13:44:56.573Z,28.27
2023-02-07T13:47:44.401Z,27.73
2023-02-07T13:50:15.825Z,28.00
2023-02-07T13:52:45.649Z,29.08
2023-02-07T13:55:30.684Z,29.94
2023-02-07T13:58:17.579Z,30.55
2023-02-07T14:00:47.787Z,31.45
2023-02-07T14:03:22.456Z,31.42
2023-02-07T14:05:49.102Z,31.57
2023-02-07T14:08:16.045Z,31.42
2023-02-07T14:10:49.347Z,31.57
2023-02-07T14:13:21.747Z,31.30
2023-02-07T14:15:48.572Z,31.66
2023-02-07T14:18:38.415Z,31.55
2023-02-07T14:21:21.100Z,32.12
2023-02-07T14:24:00.194Z,32.19
2023-02-07T14:26:39.538Z,32.74
2023-02-07T14:29:24.736Z,32.60
2023-02-07T14:31:56.665Z,32.82
2023-02-07T14:34:24.358Z,32.46
2023-02-07T14:36:54.192Z,32.70
2023-02-07T14:39:30.892Z,32.52
2023-02-07T14:42:17.173Z,32.86
2023-02-07T14:44:46.766Z,32.13
2023-02-07T14:47:20.841Z,32.51
2023-02-07T14:49:48.646Z,32.44
2023-02-07T14:52:35.466Z,32.16
2023-02-07T14:55:08.079Z,32.01
2023-02-07T14:57:50.673Z,31.98
2023-02-07T15:00:22.258Z,32.34
2023-02-07T15:02:55.680Z,32.29
2023-02-07T15:05:22.174Z,32.29
2023-02-07T15:08:02.824Z,32.31
2023-02-07T15:10:34.358Z,32.64
2023-02-07T15:13:01.913Z,32.59
2023-02-07T15:15:30.227Z,32.93
2023-02-07T15:17:58.164Z,33.33
2023-02-07T15:20:31.176Z,33.09
2023-02-07T15:22:59.150Z,33.01
2023-02-07T15:25:27.425Z,32.96
2023-02-07T15:28:04.546Z,32.94
2023-02-07T15:30:34.229Z,32.89
2023-02-07T15:33:01.154Z,32.78
2023-02-07T15:35:29.345Z,32.66
2023-02-07T15:38:16.484Z,32.87
2023-02-07T15:40:43.330Z,33.63
2023-02-07T15:43:31.764Z,34.05
2023-02-07T15:46:09.823Z,34.27
2023-02-07T15:48:54.379Z,33.89
2023-02-07T15:51:30.133Z,33.63
2023-02-07T15:54:00.299Z,33.71
2023-02-07T15:56:29.114Z,34.40
2023-02-07T15:58:59.052Z,34.23
2023-02-07T16:01:27.327Z,33.88
2023-02-07T16:03:55.048Z,33.59
2023-02-07T16:06:23.298Z,33.59
2023-02-07T16:09:00.457Z,33.90
2023-02-07T16:11:27.249Z,34.22
2023-02-07T16:13:55.173Z,34.15
2023-02-07T16:16:25.451Z,34.35
2023-02-07T16:18:52.553Z,34.44
2023-02-07T16:21:24.334Z,34.32
2023-02-07T16:23:53.290Z,34.19
2023-02-07T16:26:23.513Z,34.43
2023-02-07T16:28:50.360Z,34.08
2023-02-07T16:31:17.500Z,33.95
2023-02-07T16:33:44.423Z,33.72
2023-02-07T16:36:15.368Z,33.68
2023-02-07T16:38:42.442Z,33.45
2023-02-07T16:41:27.569Z,33.32
2023-02-07T16:43:55.061Z,33.47
2023-02-07T16:46:21.902Z,33.51
2023-02-07T16:48:49.054Z,33.57
2023-02-07T16:51:17.000Z,33.51
2023-02-07T16:53:44.384Z,33.97
2023-02-07T16:56:12.858Z,33.80
2023-02-07T16:58:40.108Z,33.75
2023-02-07T17:01:07.056Z,33.33
2023-02-07T17:03:34.096Z,33.11
2023-02-07T17:06:00.869Z,33.54
2023-02-07T17:08:29.833Z,33.62
2023-02-07T17:11:01.707Z,33.96
2023-02-07T17:13:28.741Z,34.05
2023-02-07T17:15:57.638Z,33.61
2023-02-07T17:18:25.091Z,34.06
2023-02-07T17:20:52.551Z,34.22
2023-02-07T17:23:20.825Z,34.37
2023-02-07T17:25:48.272Z,33.90
2023-02-07T17:28:17.653Z,34.19
2023-02-07T17:30:44.503Z,34.21
2023-02-07T17:33:11.176Z,34.32
2023-02-07T17:35:38.104Z,34.62
2023-02-07T17:38:05.275Z,34.48
2023-02-07T17:40:37.968Z,33.93
2023-02-07T17:43:06.208Z,33.95
2023-02-07T17:45:36.239Z,33.93
2023-02-07T17:48:03.737Z,33.89
2023-02-07T17:50:33.510Z,33.59
2023-02-07T17:53:03.466Z,33.70
2023-02-07T17:55:31.006Z,33.66
2023-02-07T17:57:57.745Z,34.04
2023-02-07T18:00:25.739Z,34.00
2023-02-07T18:02:52.632Z,33.63
2023-02-07T18:05:20.095Z,33.97
2023-02-07T18:07:47.905Z,33.71
2023-02-07T18:10:18.645Z,33.42
2023-02-07T18:12:46.653Z,33.46
2023-02-07T18:15:14.409Z,33.78
2023-02-07T18:17:46.519Z,34.10
2023-02-07T18:20:21.820Z,34.15
2023-02-07T18:22:49.885Z,33.77
2023-02-07T18:25:17.039Z,33.80
2023-02-07T18:27:50.192Z,33.55
2023-02-07T18:30:18.659Z,33.85
2023-02-07T18:32:45.784Z,33.89
2023-02-07T18:35:12.909Z,33.96
2023-02-07T18:37:39.858Z,34.01
2023-02-07T18:40:08.358Z,33.61
2023-02-07T18:42:35.735Z,33.47
2023-02-07T18:45:02.798Z,34.27
2023-02-07T18:47:32.892Z,34.07
2023-02-07T18:49:59.850Z,33.66
2023-02-07T18:52:27.266Z,33.41
2023-02-07T18:54:54.827Z,33.10
2023-02-07T18:57:21.406Z,33.09
2023-02-07T18:59:48.518Z,33.21
2023-02-07T19:02:15.333Z,33.00
2023-02-07T19:04:42.051Z,33.07
2023-02-07T19:07:09.147Z,33.19
2023-02-07T19:09:35.984Z,33.22
2023-02-07T19:12:03.437Z,33.29
2023-02-07T19:14:31.533Z,32.94
2023-02-07T19:16:58.812Z,32.63
2023-02-07T19:19:27.456Z,32.92
2023-02-07T19:21:54.906Z,32.78
2023-02-07T19:24:22.886Z,33.08
2023-02-07T19:26:53.623Z,33.08
2023-02-07T19:29:28.740Z,33.58
2023-02-07T19:32:00.605Z,33.62
2023-02-07T19:34:28.047Z,33.54
2023-02-07T19:36:54.908Z,33.66
2023-02-07T19:39:21.957Z,33.52
2023-02-07T19:41:48.993Z,33.39
2023-02-07T19:44:16.781Z,33.49
2023-02-07T19:46:44.549Z,33.67
2023-02-07T19:49:14.340Z,33.87
2023-02-07T19:51:41.540Z,33.74
2023-02-07T19:54:08.249Z,33.75
2023-02-07T19:56:38.626Z,34.08
2023-02-07T19:59:06.524Z,33.72
2023-02-07T20:01:36.487Z,33.08
2023-02-07T20:04:03.590Z,32.91
2023-02-07T20:06:32.461Z,32.93
2023-02-07T20:09:00.150Z,33.00
2023-02-07T20:11:27.389Z,33.05
2023-02-07T20:14:01.939Z,33.17
2023-02-07T20:16:31.443Z,33.09
2023-02-07T20:19:05.797Z,32.59
2023-02-07T20:21:34.939Z,32.36
2023-02-07T20:24:02.015Z,32.74
2023-02-07T20:26:31.764Z,33.04
2023-02-07T20:28:59.708Z,33.46
2023-02-07T20:31:27.109Z,33.31
2023-02-07T20:33:54.793Z,33.26
2023-02-07T20:36:21.480Z,33.67
2023-02-07T20:38:48.292Z,33.32
2023-02-07T20:41:41.148Z,33.08
2023-02-07T20:44:12.724Z,33.12
2023-02-07T20:46:46.019Z,32.97
2023-02-07T20:49:15.999Z,32.72
2023-02-07T20:51:43.898Z,33.23
2023-02-07T20:54:11.085Z,33.94
2023-02-07T20:56:38.033Z,34.61
2023-02-07T20:59:05.043Z,34.93
2023-02-07T21:01:33.298Z,34.58
2023-02-07T21:04:02.450Z,34.56
2023-02-07T21:06:29.880Z,33.99
2023-02-07T21:09:00.487Z,33.16
2023-02-07T21:11:35.702Z,32.86
2023-02-07T21:14:03.269Z,32.44
2023-02-07T21:16:30.313Z,32.51
2023-02-07T21:18:57.873Z,32.20
2023-02-07T21:21:24.920Z,32.42
2023-02-07T21:23:51.964Z,32.15
2023-02-07T21:26:19.116Z,31.67
2023-02-07T21:30:48.970Z,35.95
2023-02-07T21:33:17.075Z,32.74
2023-02-07T21:35:45.390Z,32.84
2023-02-07T21:38:13.328Z,32.29
2023-02-07T21:40:43.951Z,32.71
2023-02-07T21:43:12.040Z,32.77
2023-02-07T21:45:40.204Z,33.07
2023-02-07T23:47:29.125Z,69.51
2023-02-07T23:49:59.960Z,59.09
2023-02-07T23:52:28.145Z,57.91
2023-02-07T23:54:56.565Z,57.15
2023-02-07T23:57:25.460Z,56.41
2023-02-07T23:59:54.191Z,54.83
